Time;durP1;ratioP1;P1;durP2;ratioP2;P2;SDS_P1;SDS_P2;PMS_P1;PMS_P2;Temp;Humidity;BMP_temperature;BMP_pressure;BME280_temperature;BME280_humidity;BME280_pressure;Samples;Min_cycle;Max_cycle;Signal;HPM_P1;HPM_P2
2023/02/15 00:01:12;;;;;;;23.20;19.07;;;;;;;2.44;100.00;102938.28;5114949;28;20020;-37
2023/02/15 00:03:38;;;;;;;22.97;19.00;;;;;;;2.45;100.00;102937.34;5114604;28;20015;-38
2023/02/15 00:06:04;;;;;;;28.10;21.30;;;;;;;2.42;100.00;102932.25;5114895;28;20024;-38
2023/02/15 00:08:31;;;;;;;22.77;19.40;;;;;;;2.30;100.00;102929.63;5113589;28;20387;-37
2023/02/15 00:11:05;;;;;;;;;;;;;;;2.48;100.00;102939.75;5115241;28;20032;-37
2023/02/15 00:13:31;;;;;;;22.70;18.35;;;;;;;2.29;100.00;102930.59;5113206;28;19908;-37
2023/02/15 00:16:04;;;;;;;23.08;19.50;;;;;;;2.20;100.00;102936.69;5114909;28;20034;-37
2023/02/15 00:18:30;;;;;;;23.45;18.67;;;;;;;2.12;100.00;102917.75;5114082;28;20034;-37
2023/02/15 00:20:56;;;;;;;24.67;19.42;;;;;;;2.14;100.00;102923.81;5113953;28;20047;-37
2023/02/15 00:23:22;;;;;;;21.67;16.90;;;;;;;2.14;100.00;102910.47;5114656;28;20027;-37
2023/02/15 00:25:47;;;;;;;26.23;19.42;;;;;;;2.15;100.00;102906.84;5115119;28;20031;-37
2023/02/15 00:28:12;;;;;;;23.73;18.33;;;;;;;2.23;100.00;102916.88;5115055;28;20036;-36
2023/02/15 00:30:38;;;;;;;24.27;18.40;;;;;;;2.21;100.00;102917.00;5114493;28;20103;-36
2023/02/15 00:33:03;;;;;;;24.23;17.37;;;;;;;2.24;100.00;102915.91;5114226;28;20357;-37
2023/02/15 00:35:29;;;;;;;25.23;18.53;;;;;;;2.19;100.00;102912.75;5114204;28;20560;-37
2023/02/15 00:37:55;;;;;;;26.10;18.05;;;;;;;2.22;100.00;102907.19;5114066;28;20416;-37
2023/02/15 00:40:21;;;;;;;23.70;18.75;;;;;;;2.19;100.00;102910.94;5114926;28;20028;-37
2023/02/15 00:42:46;;;;;;;22.67;18.53;;;;;;;2.17;100.00;102909.38;5113802;28;20073;-38
2023/02/15 00:45:11;;;;;;;26.27;18.33;;;;;;;2.17;100.00;102899.53;5114702;28;20443;-38
2023/02/15 00:47:37;;;;;;;22.83;17.77;;;;;;;2.18;100.00;102905.72;5114598;28;20028;-38
2023/02/15 00:50:03;;;;;;;21.07;16.63;;;;;;;2.09;100.00;102893.97;5114377;28;20034;-37
2023/02/15 00:52:28;;;;;;;23.38;17.38;;;;;;;2.10;100.00;102901.03;5114007;28;20031;-37
2023/02/15 00:54:54;;;;;;;24.00;18.38;;;;;;;2.06;100.00;102896.91;5114463;28;20371;-37
2023/02/15 00:57:19;;;;;;;20.73;15.63;;;;;;;2.01;100.00;102885.78;5114504;28;20081;-37
2023/02/15 00:59:44;;;;;;;22.93;17.13;;;;;;;2.05;100.00;102893.41;5114804;28;20031;-37
2023/02/15 01:02:10;;;;;;;20.57;16.47;;;;;;;2.11;100.00;102884.03;5114191;28;20032;-37
2023/02/15 01:04:35;;;;;;;19.13;15.40;;;;;;;1.96;100.00;102859.47;5114263;28;20028;-37
2023/02/15 01:07:01;;;;;;;18.23;14.18;;;;;;;2.18;100.00;102885.22;5112833;28;20027;-37
2023/02/15 01:09:27;;;;;;;21.23;14.63;;;;;;;2.17;100.00;102885.34;5114129;28;20462;-37
2023/02/15 01:11:52;;;;;;;21.50;16.83;;;;;;;1.96;100.00;102850.63;5113479;28;20088;-37
2023/02/15 01:14:17;;;;;;;24.97;18.33;;;;;;;2.07;100.00;102877.25;5114416;28;20035;-37
2023/02/15 01:16:43;;;;;;;21.83;16.97;;;;;;;2.08;100.00;102878.94;5114255;28;20066;-37
2023/02/15 01:19:08;;;;;;;18.97;16.43;;;;;;;2.11;100.00;102877.88;5115547;28;20108;-37
2023/02/15 01:21:34;;;;;;;23.23;18.53;;;;;;;2.04;100.00;102875.66;5118272;28;20056;-37
2023/02/15 01:24:00;;;;;;;22.23;16.65;;;;;;;2.04;100.00;102870.34;5117727;28;20023;-37
2023/02/15 01:26:26;;;;;;;23.67;17.15;;;;;;;2.00;100.00;102870.72;5117887;28;20034;-37
2023/02/15 01:28:51;;;;;;;22.23;15.73;;;;;;;2.02;100.00;102869.63;5118169;28;20106;-37
2023/02/15 01:31:20;;;;;;;21.80;15.47;;;;;;;2.04;100.00;102869.50;5117528;28;20020;-37
2023/02/15 01:33:46;;;;;;;19.73;15.80;;;;;;;1.96;100.00;102855.94;5118328;28;20020;-37
2023/02/15 01:36:12;;;;;;;20.55;16.98;;;;;;;2.00;100.00;102868.03;5118064;28;20027;-37
2023/02/15 01:38:39;;;;;;;20.52;16.73;;;;;;;1.90;100.00;102851.09;5117372;28;20046;-37
2023/02/15 01:41:22;;;;;;;19.83;15.77;;;;;;;1.99;100.00;102856.53;5117391;28;20031;-37
2023/02/15 01:43:54;;;;;;;20.40;16.05;;;;;;;1.90;100.00;102851.09;5118148;28;20030;-37
2023/02/15 01:46:24;;;;;;;21.50;16.67;;;;;;;1.95;100.00;102855.09;5117544;27;20023;-37
2023/02/15 01:48:58;;;;;;;20.65;15.77;;;;;;;1.97;100.00;102854.97;5118311;28;20028;-37
2023/02/15 01:51:27;;;;;;;19.40;15.63;;;;;;;1.98;100.00;102859.31;5118011;28;20471;-37
2023/02/15 01:54:10;;;;;;;19.45;14.57;;;;;;;2.01;100.00;102859.94;5116691;28;20028;-37
2023/02/15 01:56:38;;;;;;;21.85;15.60;;;;;;;1.92;100.00;102851.84;5117710;28;20027;-37
2023/02/15 01:59:09;;;;;;;23.15;17.40;;;;;;;1.91;100.00;102856.31;5116650;28;20463;-37
2023/02/15 02:01:35;;;;;;;20.65;15.43;;;;;;;1.89;100.00;102842.25;5116985;28;20024;-37
2023/02/15 02:04:04;;;;;;;20.83;15.25;;;;;;;1.84;100.00;102824.91;5117007;28;20050;-37
2023/02/15 02:06:32;;;;;;;22.48;16.13;;;;;;;1.92;100.00;102841.16;5116799;28;20059;-37
2023/02/15 02:08:57;;;;;;;21.05;16.05;;;;;;;1.87;100.00;102830.00;5117144;28;20024;-37
2023/02/15 02:11:23;;;;;;;24.00;18.65;;;;;;;1.90;100.00;102840.41;5116537;28;20414;-38
2023/02/15 02:13:51;;;;;;;25.52;18.60;;;;;;;1.89;100.00;102842.25;5117309;28;20076;-38
2023/02/15 02:16:39;;;;;;;17.55;14.07;;;;;;;1.96;100.00;102832.78;5117589;28;20047;-38
2023/02/15 02:19:45;;;;;;;21.05;17.33;;;;;;;1.91;100.00;102832.31;5116222;27;20171;-38
2023/02/15 02:22:20;;;;;;;22.23;17.02;;;;;;;1.82;100.00;102832.22;5117108;28;20096;-37
2023/02/15 02:25:22;;;;;;;19.23;15.07;;;;;;;1.87;100.00;102835.34;5116533;28;20031;-37
2023/02/15 02:28:18;;;;;;;20.92;14.80;;;;;;;1.79;100.00;102826.13;5116696;28;20035;-37
2023/02/15 02:31:14;;;;;;;20.58;14.57;;;;;;;1.76;100.00;102804.22;5115627;28;20023;-37
2023/02/15 02:33:48;;;;;;;19.45;14.25;;;;;;;1.81;100.00;102815.38;5116681;28;20035;-37
2023/02/15 02:36:25;;;;;;;18.67;14.18;;;;;;;1.85;100.00;102821.28;5116648;28;20042;-37
2023/02/15 02:39:15;;;;;;;22.45;14.88;;;;;;;1.82;100.00;102813.53;5116313;28;20161;-37
2023/02/15 02:41:49;;;;;;;25.40;16.55;;;;;;;1.77;100.00;102813.91;5116818;28;20055;-37
2023/02/15 02:44:22;;;;;;;22.70;16.67;;;;;;;1.73;100.00;102807.97;5116749;28;20032;-37
2023/02/15 02:46:54;;;;;;;20.85;15.70;;;;;;;1.67;100.00;102800.47;5116400;28;20476;-37
2023/02/15 02:49:33;;;;;;;21.77;14.95;;;;;;;1.76;100.00;102805.06;5116889;28;20063;-37
2023/02/15 02:52:00;;;;;;;18.73;14.98;;;;;;;1.70;100.00;102805.53;5116578;28;20036;-37
2023/02/15 02:54:26;;;;;;;24.38;18.45;;;;;;;1.62;100.00;102801.81;5115954;28;20081;-37
2023/02/15 02:56:55;;;;;;;21.95;17.35;;;;;;;1.63;100.00;102803.53;5115669;28;20444;-37
2023/02/15 02:59:30;;;;;;;19.58;13.95;;;;;;;1.61;100.00;102795.66;5115894;28;20038;-37
2023/02/15 03:02:05;;;;;;;22.95;16.50;;;;;;;1.57;100.00;102794.19;5116112;28;20031;-37
2023/02/15 03:04:37;;;;;;;21.23;15.75;;;;;;;1.54;100.00;102795.28;5116647;28;20051;-37
2023/02/15 03:07:07;;;;;;;18.63;15.52;;;;;;;1.50;100.00;102777.81;5115995;28;20072;-37
2023/02/15 03:09:41;;;;;;;18.85;15.05;;;;;;;1.53;100.00;102785.59;5115696;28;20047;-37
2023/02/15 03:12:27;;;;;;;20.85;15.18;;;;;;;1.58;100.00;102787.88;5115323;28;20030;-38
2023/02/15 03:15:00;;;;;;;18.90;15.02;;;;;;;1.57;100.00;102788.03;5116942;28;20024;-37
2023/02/15 03:17:29;;;;;;;18.55;14.45;;;;;;;1.58;100.00;102787.03;5115781;28;20027;-37
2023/02/15 03:20:00;;;;;;;17.42;13.55;;;;;;;1.58;100.00;102793.22;5115579;28;20058;-37
2023/02/15 03:22:33;;;;;;;21.08;15.18;;;;;;;1.50;100.00;102783.16;5116503;28;20039;-37
2023/02/15 03:25:25;;;;;;;19.73;15.60;;;;;;;1.50;100.00;102771.66;5115400;28;20039;-37
2023/02/15 03:27:58;;;;;;;20.40;14.73;;;;;;;1.52;100.00;102778.56;5114905;28;20023;-38
2023/02/15 03:30:25;;;;;;;18.13;14.18;;;;;;;1.48;100.00;102763.78;5115594;28;20032;-37
2023/02/15 03:32:51;;;;;;;19.13;15.38;;;;;;;1.51;100.00;102768.00;5115509;28;20034;-38
2023/02/15 03:35:22;;;;;;;17.45;13.55;;;;;;;1.53;100.00;102761.59;5115374;28;20024;-38
2023/02/15 03:37:53;;;;;;;17.67;13.77;;;;;;;1.50;100.00;102755.66;5115382;28;20020;-37
2023/02/15 03:43:45;;;;;;;19.13;14.65;;;;;;;1.43;100.00;102767.81;5114858;28;20391;-37
2023/02/15 03:46:28;;;;;;;19.50;15.52;;;;;;;1.40;100.00;102766.22;5114990;28;20024;-37
2023/02/15 03:49:02;;;;;;;23.45;15.15;;;;;;;1.35;100.00;102763.06;5114841;28;20034;-37
2023/02/15 03:51:33;;;;;;;17.85;12.63;;;;;;;1.40;100.00;102765.38;5115490;28;20336;-37
2023/02/15 03:54:01;;;;;;;18.20;13.68;;;;;;;1.41;100.00;102767.91;5113775;28;20019;-37
2023/02/15 03:56:26;;;;;;;18.23;12.93;;;;;;;1.37;100.00;102745.16;5115586;28;20329;-38
2023/02/15 04:01:58;;;;;;;19.73;12.88;;;;;;;1.39;100.00;102755.69;5114965;28;20034;-46
2023/02/15 04:04:31;;;;;;;17.58;13.75;;;;;;;1.37;100.00;102752.31;5114882;28;20032;-37
2023/02/15 04:06:57;;;;;;;18.77;14.18;;;;;;;1.31;100.00;102755.44;5113678;28;20028;-37
2023/02/15 04:12:06;;;;;;;20.88;14.60;;;;;;;1.22;100.00;102757.03;5115335;28;20092;-37
2023/02/15 04:17:16;;;;;;;16.88;12.38;;;;;;;1.23;100.00;102742.75;5114470;28;20490;-37
2023/02/15 04:25:12;;;;;;;19.67;13.95;;;;;;;1.09;100.00;102743.00;5114650;28;20092;-37
2023/02/15 04:27:48;;;;;;;19.55;13.45;;;;;;;1.10;100.00;102758.88;5114289;28;20080;-37
2023/02/15 04:30:16;;;;;;;21.53;15.87;;;;;;;1.05;100.00;102752.22;5114010;28;20036;-37
2023/02/15 04:32:41;;;;;;;18.83;14.35;;;;;;;1.10;100.00;102742.03;5114459;28;20315;-37
2023/02/15 04:35:07;;;;;;;20.30;14.97;;;;;;;1.08;100.00;102751.97;5114126;28;20451;-37
2023/02/15 04:37:33;;;;;;;18.20;14.13;;;;;;;1.09;100.00;102743.00;5112903;28;20598;-37
2023/02/15 04:39:59;;;;;;;21.02;15.30;;;;;;;1.02;100.00;102739.97;5113742;28;20449;-37
2023/02/15 04:42:25;;;;;;;18.20;13.00;;;;;;;1.15;100.00;102758.50;5113850;28;20108;-37
2023/02/15 04:44:51;;;;;;;20.25;13.20;;;;;;;1.12;100.00;102750.75;5114265;28;20103;-37
2023/02/15 04:47:17;;;;;;;19.48;15.07;;;;;;;1.03;100.00;102737.22;5113733;28;20032;-37
2023/02/15 04:49:42;;;;;;;21.03;14.87;;;;;;;1.13;100.00;102744.47;5113733;28;20023;-38
2023/02/15 04:52:07;;;;;;;21.67;14.87;;;;;;;1.08;100.00;102734.19;5113843;28;20085;-37
2023/02/15 04:54:33;;;;;;;19.40;14.30;;;;;;;1.06;100.00;102725.44;5115858;28;20055;-37
2023/02/15 04:56:58;;;;;;;18.37;14.03;;;;;;;1.02;100.00;102729.31;5117930;28;20027;-37
2023/02/15 04:59:23;;;;;;;21.33;15.00;;;;;;;0.99;100.00;102727.75;5118263;28;20028;-38
2023/02/15 05:01:49;;;;;;;21.67;15.37;;;;;;;0.94;100.00;102727.28;5117922;28;20035;-37
2023/02/15 05:04:15;;;;;;;17.88;14.30;;;;;;;0.93;100.00;102722.09;5118707;28;20035;-38
2023/02/15 05:06:40;;;;;;;16.27;12.80;;;;;;;0.89;100.00;102702.81;5118345;28;20023;-37
2023/02/15 05:09:05;;;;;;;17.70;13.60;;;;;;;0.99;100.00;102714.44;5118320;27;20031;-38
2023/02/15 05:11:31;;;;;;;18.63;13.50;;;;;;;0.93;100.00;102716.75;5117981;28;20031;-38
2023/02/15 05:13:56;;;;;;;23.83;16.00;;;;;;;0.87;100.00;102714.56;5118171;28;20028;-38
2023/02/15 05:16:22;;;;;;;23.70;16.53;;;;;;;0.91;100.00;102721.34;5117615;28;20280;-37
2023/02/15 05:18:47;;;;;;;19.73;14.77;;;;;;;0.95;100.00;102726.31;5116843;28;20043;-37
2023/02/15 05:21:13;;;;;;;20.13;15.50;;;;;;;0.82;100.00;102709.59;5118077;28;20395;-37
2023/02/15 05:23:38;;;;;;;20.52;16.23;;;;;;;0.86;100.00;102723.53;5118068;28;20064;-37
2023/02/15 05:28:48;;;;;;;21.90;14.73;;;;;;;0.80;100.00;102694.72;5117439;28;20256;-37
2023/02/15 05:31:16;;;;;;;21.13;14.17;;;;;;;0.89;100.00;102717.97;5117660;28;20028;-37
2023/02/15 05:33:42;;;;;;;18.95;14.30;;;;;;;0.90;100.00;102720.50;5117783;28;20031;-37
2023/02/15 05:36:08;;;;;;;20.08;14.95;;;;;;;0.77;100.00;102698.47;5117516;28;20044;-37
2023/02/15 05:38:37;;;;;;;21.42;15.23;;;;;;;0.87;100.00;102714.56;5118188;28;20028;-37
2023/02/15 05:41:03;;;;;;;21.48;15.95;;;;;;;0.85;100.00;102711.19;5117395;28;20046;-37
2023/02/15 05:43:29;;;;;;;17.35;14.02;;;;;;;0.84;100.00;102710.34;5117385;28;20028;-42
2023/02/15 05:45:54;;;;;;;21.10;14.77;;;;;;;0.83;100.00;102702.44;5118142;28;20027;-37
2023/02/15 05:48:23;;;;;;;18.58;13.43;;;;;;;0.87;100.00;102714.56;5117004;28;20070;-37
2023/02/15 05:50:58;;;;;;;20.58;13.82;;;;;;;0.77;100.00;102704.63;5116896;28;20032;-37
2023/02/15 05:53:23;;;;;;;20.52;15.48;;;;;;;0.85;100.00;102713.84;5117414;28;20023;-37
2023/02/15 05:55:48;;;;;;;20.73;15.87;;;;;;;0.80;100.00;102702.72;5117352;28;20084;-37
2023/02/15 05:58:14;;;;;;;22.20;15.93;;;;;;;0.84;100.00;102714.81;5116818;27;20273;-36
2023/02/15 06:00:39;;;;;;;20.37;16.07;;;;;;;0.81;100.00;102712.38;5117588;28;20027;-37
2023/02/15 06:03:05;;;;;;;20.57;15.63;;;;;;;0.86;100.00;102712.88;5116716;28;20020;-37
2023/02/15 06:05:30;;;;;;;19.07;14.43;;;;;;;0.81;100.00;102701.72;5117450;28;20031;-37
2023/02/15 06:07:55;;;;;;;18.90;14.57;;;;;;;0.82;100.00;102716.75;5116584;28;20091;-37
2023/02/15 06:10:20;;;;;;;22.83;16.70;;;;;;;0.75;100.00;102711.91;5117184;28;20027;-37
2023/02/15 06:12:46;;;;;;;19.50;14.87;;;;;;;0.67;100.00;102718.78;5117114;28;20059;-37
2023/02/15 06:15:11;;;;;;;22.03;16.10;;;;;;;0.68;100.00;102723.16;5116769;28;20027;-37
2023/02/15 06:17:37;;;;;;;20.43;15.53;;;;;;;0.55;100.00;102693.16;5117506;28;20046;-37
2023/02/15 06:20:03;;;;;;;21.93;16.63;;;;;;;0.71;100.00;102718.44;5117498;28;20246;-37
2023/02/15 06:22:28;;;;;;;26.73;18.75;;;;;;;0.70;100.00;102723.91;5116938;28;20425;-36
2023/02/15 06:24:53;;;;;;;24.73;18.57;;;;;;;0.73;100.00;102719.19;5116324;28;20034;-37
2023/02/15 06:27:19;;;;;;;33.10;24.97;;;;;;;0.70;100.00;102723.91;5116276;28;20023;-37
2023/02/15 06:29:44;;;;;;;33.07;24.83;;;;;;;0.68;100.00;102725.81;5117087;28;20055;-37
2023/02/15 06:32:09;;;;;;;30.33;23.63;;;;;;;0.64;100.00;102717.25;5116738;28;20024;-37
2023/02/15 06:34:35;;;;;;;24.90;19.17;;;;;;;0.53;100.00;102703.91;5117165;28;20028;-37
2023/02/15 06:37:00;;;;;;;27.17;18.50;;;;;;;0.62;100.00;102716.50;5116301;28;20055;-37
2023/02/15 06:39:25;;;;;;;23.20;17.40;;;;;;;0.60;100.00;102714.94;5116297;28;20463;-37
2023/02/15 06:41:51;;;;;;;21.90;16.90;;;;;;;0.54;100.00;102713.59;5116511;28;20070;-37
2023/02/15 06:44:16;;;;;;;24.33;17.13;;;;;;;0.47;100.00;102701.72;5115956;28;20053;-37
2023/02/15 06:46:42;;;;;;;22.63;17.30;;;;;;;0.57;100.00;102717.81;5116136;28;20027;-38
2023/02/15 06:49:07;;;;;;;20.95;15.52;;;;;;;0.51;100.00;102716.50;5115886;28;20024;-38
2023/02/15 06:51:33;;;;;;;23.83;16.43;;;;;;;0.55;100.00;102707.31;5115732;28;20027;-38
2023/02/15 06:53:59;;;;;;;;;;;;;;;0.64;100.00;102703.06;5117260;28;20024;-37
2023/02/15 06:56:24;;;;;;;21.87;15.73;;;;;;;0.58;100.00;102709.72;5115965;28;20285;-37
2023/02/15 06:58:50;;;;;;;24.20;16.67;;;;;;;0.59;100.00;102699.94;5115874;28;20278;-37
2023/02/15 07:01:16;;;;;;;24.37;16.93;;;;;;;0.55;100.00;102682.50;5115680;28;20119;-37
2023/02/15 07:03:41;;;;;;;25.33;17.98;;;;;;;0.43;100.00;102676.31;5116370;28;20103;-37
2023/02/15 07:06:08;;;;;;;22.67;16.60;;;;;;;0.56;100.00;102687.69;5116379;28;20101;-37
2023/02/15 07:08:34;;;;;;;21.65;16.38;;;;;;;0.57;100.00;102689.38;5116475;28;20034;-37
2023/02/15 07:12:40;;;;;;;21.42;15.95;;;;;;;0.55;100.00;102683.34;5115422;28;20040;-36
2023/02/15 07:13:46;;;;;;;22.83;16.83;;;;;;;0.48;100.00;102671.47;5115288;28;20039;-36
2023/02/15 07:16:11;;;;;;;23.73;17.80;;;;;;;0.52;100.00;102672.91;5115525;28;20031;-37
2023/02/15 07:18:38;;;;;;;27.13;18.38;;;;;;;0.57;100.00;102681.41;5115191;28;20028;-37
2023/02/15 07:21:04;;;;;;;22.42;16.55;;;;;;;0.59;100.00;102679.47;5116432;28;20367;-37
2023/02/15 07:23:29;;;;;;;24.23;18.35;;;;;;;0.57;100.00;102684.06;5114991;28;20035;-37
2023/02/15 07:25:59;;;;;;;25.43;17.87;;;;;;;0.63;100.00;102683.56;5115978;27;20035;-37
2023/02/15 07:28:24;;;;;;;26.15;18.75;;;;;;;0.63;100.00;102686.22;5115285;28;20114;-37
2023/02/15 07:30:50;;;;;;;27.33;17.43;;;;;;;0.67;100.00;102684.19;5115410;28;20115;-37
2023/02/15 07:33:26;;;;;;;25.58;18.73;;;;;;;0.65;100.00;102671.00;5115701;28;20477;-37
2023/02/15 07:35:58;;;;;;;26.77;18.88;;;;;;;0.74;100.00;102688.91;5115753;28;20368;-38
2023/02/15 07:38:26;;;;;;;24.67;17.85;;;;;;;0.77;100.00;102683.31;5115803;28;20020;-37
2023/02/15 07:40:57;;;;;;;26.75;18.92;;;;;;;0.80;100.00;102670.75;5114656;28;20464;-37
2023/02/15 07:43:23;;;;;;;24.77;18.92;;;;;;;0.80;100.00;102676.91;5115893;28;20027;-37
2023/02/15 07:45:48;;;;;;;25.27;18.33;;;;;;;0.89;100.00;102680.66;5115029;28;20042;-37
2023/02/15 07:48:13;;;;;;;23.90;18.07;;;;;;;0.91;100.00;102681.38;5114953;28;20051;-38
2023/02/15 07:50:39;;;;;;;25.80;18.37;;;;;;;1.00;100.00;102683.31;5115589;28;20062;-38
2023/02/15 07:53:04;;;;;;;26.43;18.57;;;;;;;1.04;100.00;102674.09;5115087;27;20019;-37
2023/02/15 07:55:30;;;;;;;26.63;19.30;;;;;;;1.10;100.00;102686.09;5114483;28;20023;-38
2023/02/15 07:57:56;;;;;;;26.80;20.20;;;;;;;1.14;100.00;102684.88;5114464;28;20032;-38
2023/02/15 08:00:24;;;;;;;28.23;19.40;;;;;;;1.19;100.00;102670.19;5115090;28;20032;-38
2023/02/15 08:03:14;;;;;;;27.52;20.35;;;;;;;1.33;100.00;102662.91;5115205;28;20039;-37
2023/02/15 08:05:41;;;;;;;25.65;19.92;;;;;;;1.32;100.00;102655.84;5115182;28;20031;-38
2023/02/15 08:08:08;;;;;;;26.80;20.17;;;;;;;1.47;100.00;102666.13;5114276;28;20523;-38
2023/02/15 08:13:19;;;;;;;26.48;19.90;;;;;;;1.63;100.00;102665.69;5114541;28;20093;-37
2023/02/15 08:15:49;;;;;;;27.42;19.90;;;;;;;1.65;100.00;102658.38;5114218;28;20031;-37
2023/02/15 08:18:15;;;;;;;29.08;20.20;;;;;;;1.65;100.00;102663.72;5114087;28;20498;-37
2023/02/15 08:20:40;;;;;;;25.58;19.65;;;;;;;1.70;100.00;102658.00;5115286;28;20024;-37
2023/02/15 08:23:06;;;;;;;26.57;20.10;;;;;;;1.70;100.00;102660.66;5114207;28;20050;-37
2023/02/15 08:25:32;;;;;;;26.00;19.92;;;;;;;1.76;100.00;102660.19;5114986;28;20080;-38
2023/02/15 08:27:57;;;;;;;25.50;20.63;;;;;;;1.84;100.00;102663.03;5113859;28;20073;-38
2023/02/15 08:30:23;;;;;;;26.77;20.47;;;;;;;1.79;100.00;102650.06;5114408;28;20375;-38
2023/02/15 08:32:48;;;;;;;28.53;20.23;;;;;;;1.91;100.00;102655.38;5114202;28;20027;-38
2023/02/15 08:35:13;;;;;;;28.03;20.03;;;;;;;2.00;100.00;102658.09;5115019;28;20103;-38
2023/02/15 08:37:39;;;;;;;24.57;18.60;;;;;;;2.05;100.00;102655.03;5114129;28;20051;-38
2023/02/15 08:40:05;;;;;;;24.30;19.53;;;;;;;2.08;100.00;102640.59;5115040;28;20028;-38
2023/02/15 08:42:32;;;;;;;26.50;20.48;;;;;;;2.09;100.00;102634.25;5114155;28;20031;-38
2023/02/15 08:44:58;;;;;;;26.52;20.73;;;;;;;2.23;100.00;102648.09;5113786;28;20028;-38
2023/02/15 08:47:23;;;;;;;27.00;20.03;;;;;;;2.28;100.00;102645.88;5114114;28;20081;-38
2023/02/15 08:49:48;;;;;;;30.57;21.57;;;;;;;2.33;100.00;102637.47;5114397;28;20024;-37
2023/02/15 08:52:14;;;;;;;27.67;21.00;;;;;;;2.30;100.00;102616.41;5113679;28;20066;-37
2023/02/15 08:54:39;;;;;;;26.80;20.60;;;;;;;2.49;100.00;102637.84;5114270;28;20023;-37
2023/02/15 08:57:06;;;;;;;25.27;19.57;;;;;;;2.53;100.00;102623.22;5113934;28;20039;-37
2023/02/15 08:59:32;;;;;;;26.73;20.67;;;;;;;2.67;100.00;102632.69;5114241;28;20046;-37
2023/02/15 09:01:57;;;;;;;25.77;20.63;;;;;;;2.72;100.00;102635.81;5113996;28;20379;-37
2023/02/15 09:04:23;;;;;;;27.13;21.50;;;;;;;2.72;100.00;102622.44;5114212;28;20076;-37
2023/02/15 09:06:49;;;;;;;27.70;21.35;;;;;;;2.83;100.00;102626.84;5114120;28;20114;-38
2023/02/15 09:09:18;;;;;;;28.73;21.23;;;;;;;2.80;100.00;102621.78;5114154;28;20023;-38
2023/02/15 09:11:46;;;;;;;28.55;21.02;;;;;;;2.95;100.00;102632.94;5113786;28;20030;-38
2023/02/15 09:14:17;;;;;;;25.92;20.35;;;;;;;2.96;100.00;102614.06;5114615;28;20463;-38
2023/02/15 09:16:54;;;;;;;24.60;19.90;;;;;;;2.99;100.00;102603.13;5113760;28;20069;-38
2023/02/15 09:19:20;;;;;;;;;;;;;;;3.22;100.00;102619.75;5113958;28;20037;-38
2023/02/15 09:21:46;;;;;;;26.07;20.00;;;;;;;3.29;100.00;102630.72;5113828;28;19922;-37
2023/02/15 09:24:14;;;;;;;26.42;21.08;;;;;;;3.35;100.00;102617.63;5113441;28;20466;-37
2023/02/15 09:26:41;;;;;;;30.70;22.63;;;;;;;3.45;100.00;102617.63;5113695;28;20525;-38
2023/02/15 09:29:08;;;;;;;28.58;21.88;;;;;;;3.59;100.00;102611.88;5113509;28;20490;-38
2023/02/15 09:31:38;;;;;;;29.75;21.33;;;;;;;3.70;100.00;102608.19;5113342;28;20028;-38
2023/02/15 09:34:04;;;;;;;26.92;19.48;;;;;;;3.79;100.00;102603.81;5113552;28;20035;-38
2023/02/15 09:36:32;;;;;;;28.65;20.95;;;;;;;3.86;100.00;102581.69;5113671;28;20030;-38
2023/02/15 09:39:19;;;;;;;26.60;21.55;;;;;;;4.09;100.00;102608.09;5113857;28;20031;-38
2023/02/15 09:42:19;;;;;;;27.13;21.80;;;;;;;4.19;100.00;102600.88;5117967;28;20051;-38
2023/02/15 09:44:53;;;;;;;27.83;21.50;;;;;;;4.32;100.00;102608.59;5117666;28;20114;-38
2023/02/15 09:47:41;;;;;;;26.98;21.30;;;;;;;4.38;100.00;102606.19;5117061;28;20027;-38
2023/02/15 09:50:23;;;;;;;25.70;20.73;;;;;;;4.53;100.00;102606.53;5116979;28;20028;-38
2023/02/15 09:53:05;;;;;;;25.92;19.52;;;;;;;4.71;100.00;102605.75;5118107;28;20064;-37
2023/02/15 09:55:59;;;;;;;25.48;20.45;;;;;;;4.84;100.00;102609.78;5117087;28;20538;-38
2023/02/15 09:58:48;;;;;;;25.90;20.13;;;;;;;4.97;100.00;102614.75;5117729;28;20104;-37
2023/02/15 10:01:24;;;;;;;27.60;20.73;;;;;;;5.09;100.00;102618.09;5117066;28;20110;-37
2023/02/15 10:04:08;;;;;;;24.93;19.83;;;;;;;5.15;100.00;102612.94;5117344;28;20028;-38
2023/02/15 10:06:41;;;;;;;25.45;20.45;;;;;;;5.28;100.00;102623.31;5117541;28;20051;-38
2023/02/15 10:09:12;;;;;;;26.77;21.02;;;;;;;5.40;100.00;102618.53;5116651;28;20035;-37
2023/02/15 10:12:12;;;;;;;30.05;21.83;;;;;;;5.55;100.00;102621.53;5117420;28;20375;-37
2023/02/15 10:15:08;;;;;;;26.27;20.13;;;;;;;5.70;100.00;102614.59;5117070;28;20034;-37
2023/02/15 10:18:00;;;;;;;29.90;22.55;;;;;;;5.88;100.00;102618.09;5116743;28;20024;-37
2023/02/15 10:20:31;;;;;;;27.67;20.90;;;;;;;5.97;100.00;102613.69;5116454;28;20039;-37
2023/02/15 10:23:18;;;;;;;24.75;20.67;;;;;;;6.03;100.00;102604.97;5116702;28;20079;-37
2023/02/15 10:26:13;;;;;;;24.77;20.15;;;;;;;6.24;100.00;102618.03;5116893;28;20039;-38
2023/02/15 10:29:03;;;;;;;29.55;19.90;;;;;;;6.40;100.00;102612.75;5116590;28;20023;-38
2023/02/15 10:31:44;;;;;;;27.15;19.58;;;;;;;6.50;100.00;102611.81;5116783;28;20039;-38
2023/02/15 10:34:28;;;;;;;26.25;20.63;;;;;;;6.60;100.00;102607.13;5116942;28;20034;-38
2023/02/15 10:37:04;;;;;;;27.77;19.75;;;;;;;6.66;100.00;102601.09;5116704;28;20084;-38
2023/02/15 10:40:06;;;;;;;26.10;19.48;;;;;;;6.87;100.00;102606.03;5116111;28;20093;-39
2023/02/15 10:42:53;;;;;;;26.55;19.77;;;;;;;7.03;100.00;102599.84;5116562;28;20023;-38
2023/02/15 10:45:18;;;;;;;27.48;20.08;;;;;;;7.19;100.00;102607.97;5116064;28;20034;-38
2023/02/15 10:48:11;;;;;;;25.30;18.37;;;;;;;7.32;100.00;102600.28;5116244;28;20031;-37
2023/02/15 10:50:37;;;;;;;26.52;18.40;;;;;;;7.43;100.00;102605.31;5116119;28;20019;-37
2023/02/15 10:53:32;;;;;;;25.57;18.63;;;;;;;7.54;100.00;102600.59;5115218;28;20031;-37
2023/02/15 10:56:03;;;;;;;24.60;19.08;;;;;;;7.70;99.85;102592.50;5116769;28;20059;-37
2023/02/15 10:58:36;;;;;;;27.25;19.45;;;;;;;7.75;97.79;102582.06;5115052;28;20387;-37
2023/02/15 11:01:20;;;;;;;25.05;18.73;;;;;;;7.99;98.77;102586.59;5115998;28;20031;-37
2023/02/15 11:03:54;;;;;;;24.10;18.00;;;;;;;8.13;98.04;102593.13;5115856;28;20147;-37
2023/02/15 11:06:22;;;;;;;22.13;17.95;;;;;;;8.14;98.02;102576.78;5116616;28;20421;-38
2023/02/15 11:09:00;;;;;;;26.40;18.50;;;;;;;8.29;94.84;102587.69;5115714;28;20387;-37
2023/02/15 11:11:34;;;;;;;24.80;19.33;;;;;;;8.38;95.92;102578.59;5116337;28;20432;-37
2023/02/15 11:14:05;;;;;;;26.15;18.95;;;;;;;8.48;94.67;102576.53;5116553;28;20106;-37
2023/02/15 11:16:38;;;;;;;21.95;17.00;;;;;;;8.62;93.98;102590.28;5115610;28;20031;-37
2023/02/15 11:19:11;;;;;;;21.88;16.70;;;;;;;8.67;93.39;102586.06;5116086;28;20027;-38
2023/02/15 11:21:44;;;;;;;22.85;17.25;;;;;;;8.75;92.47;102577.94;5115866;28;20356;-37
2023/02/15 11:24:14;;;;;;;23.48;17.95;;;;;;;8.80;94.18;102582.81;5115471;28;20031;-37
2023/02/15 11:26:46;;;;;;;25.45;18.20;;;;;;;8.84;93.12;102576.03;5116007;28;20515;-37
2023/02/15 11:29:37;;;;;;;26.23;18.73;;;;;;;8.85;93.74;102566.91;5115336;28;20023;-38
2023/02/15 11:32:17;;;;;;;24.25;17.80;;;;;;;9.00;90.54;102565.13;5116154;28;20035;-37
2023/02/15 11:35:06;;;;;;;21.83;17.67;;;;;;;9.13;90.77;102558.31;5115479;28;20020;-37
2023/02/15 11:37:49;;;;;;;22.08;17.17;;;;;;;9.18;89.64;102539.72;5094415;27;20077;-37
2023/02/15 11:40:24;;;;;;;21.08;16.65;;;;;;;9.35;87.43;102535.84;5115478;28;20028;-37
2023/02/15 11:42:55;;;;;;;20.83;17.10;;;;;;;9.40;88.21;102532.63;5114827;28;20051;-37
2023/02/15 11:45:31;;;;;;;23.30;17.00;;;;;;;9.56;88.62;102524.34;5115338;28;20059;-37
2023/02/15 11:47:58;;;;;;;25.85;16.77;;;;;;;9.66;88.91;102529.50;5115780;28;20333;-37
2023/02/15 11:50:27;;;;;;;24.63;17.65;;;;;;;9.73;86.83;102525.88;5114678;28;20386;-37